Terminal Aerodrome Forecast
Issued by NWS

Current Version | Previous Version | Graphics & Text | Print | Product List | Glossary On
Versions: 1 2 3 4 5 6 7 8 9 10 11 12 13 14 15 16 17
000
FTUS41 KILN 240520
TAFLUK
TAF
KLUK 240520Z 2406/2506 00000KT P6SM FEW250
     FM240700 00000KT 3SM BR SCT002
     FM240800 00000KT 1SM BR SCT002
      TEMPO 2408/2411 1/4SM FG BKN002
     FM241100 00000KT 3SM BR SCT002
     FM241300 09005KT P6SM SCT250
     FM250000 00000KT P6SM SCT250=

USA.gov is the U.S. government's official web portal to all federal, state and local government web resources and services.